sensor_id;sensor_type;location;lat;lon;timestamp;P1;durP1;ratioP1;P2;durP2;ratioP2
77018;SDS011;66044;53.142;17.962;2023-06-04T00:01:23;8.60;;;2.80;;
77018;SDS011;66044;53.142;17.962;2023-06-04T00:03:49;9.20;;;2.90;;
77018;SDS011;66044;53.142;17.962;2023-06-04T00:06:16;6.50;;;2.60;;
77018;SDS011;66044;53.142;17.962;2023-06-04T00:08:42;12.20;;;3.10;;
77018;SDS011;66044;53.142;17.962;2023-06-04T00:11:09;9.10;;;2.70;;
77018;SDS011;66044;53.142;17.962;2023-06-04T00:13:35;7.30;;;2.80;;
77018;SDS011;66044;53.142;17.962;2023-06-04T00:16:02;8.10;;;2.60;;
77018;SDS011;66044;53.142;17.962;2023-06-04T00:18:28;10.10;;;3.10;;
77018;SDS011;66044;53.142;17.962;2023-06-04T00:20:54;8.50;;;3.10;;
77018;SDS011;66044;53.142;17.962;2023-06-04T00:23:21;10.80;;;2.80;;
77018;SDS011;66044;53.142;17.962;2023-06-04T00:25:48;11.50;;;3.20;;
77018;SDS011;66044;53.142;17.962;2023-06-04T00:28:14;8.00;;;3.00;;
77018;SDS011;66044;53.142;17.962;2023-06-04T00:30:41;7.50;;;2.80;;
77018;SDS011;66044;53.142;17.962;2023-06-04T00:33:07;10.40;;;3.20;;
77018;SDS011;66044;53.142;17.962;2023-06-04T00:35:34;10.70;;;4.20;;
77018;SDS011;66044;53.142;17.962;2023-06-04T00:38:00;14.80;;;4.60;;
77018;SDS011;66044;53.142;17.962;2023-06-04T00:40:26;12.20;;;4.50;;
77018;SDS011;66044;53.142;17.962;2023-06-04T00:42:53;14.60;;;4.80;;
77018;SDS011;66044;53.142;17.962;2023-06-04T00:45:21;10.90;;;4.20;;
77018;SDS011;66044;53.142;17.962;2023-06-04T00:47:52;8.50;;;3.30;;
77018;SDS011;66044;53.142;17.962;2023-06-04T00:50:19;11.70;;;3.70;;
77018;SDS011;66044;53.142;17.962;2023-06-04T00:52:47;12.20;;;3.60;;
77018;SDS011;66044;53.142;17.962;2023-06-04T00:55:15;10.00;;;3.70;;
77018;SDS011;66044;53.142;17.962;2023-06-04T00:57:44;12.50;;;4.00;;
77018;SDS011;66044;53.142;17.962;2023-06-04T01:00:11;9.50;;;3.30;;
77018;SDS011;66044;53.142;17.962;2023-06-04T01:02:39;10.60;;;4.20;;
77018;SDS011;66044;53.142;17.962;2023-06-04T01:05:20;8.80;;;3.40;;
77018;SDS011;66044;53.142;17.962;2023-06-04T01:08:03;9.30;;;3.50;;
77018;SDS011;66044;53.142;17.962;2023-06-04T01:10:31;9.20;;;3.50;;
77018;SDS011;66044;53.142;17.962;2023-06-04T01:12:58;8.20;;;3.20;;
77018;SDS011;66044;53.142;17.962;2023-06-04T01:15:24;8.50;;;3.30;;
77018;SDS011;66044;53.142;17.962;2023-06-04T01:17:52;10.60;;;3.60;;
77018;SDS011;66044;53.142;17.962;2023-06-04T01:20:34;9.30;;;3.10;;
77018;SDS011;66044;53.142;17.962;2023-06-04T01:26:00;9.80;;;3.30;;
77018;SDS011;66044;53.142;17.962;2023-06-04T01:28:32;7.90;;;3.30;;
77018;SDS011;66044;53.142;17.962;2023-06-04T01:31:00;9.60;;;2.90;;
77018;SDS011;66044;53.142;17.962;2023-06-04T01:33:29;6.40;;;3.70;;
77018;SDS011;66044;53.142;17.962;2023-06-04T01:35:55;6.80;;;2.80;;
77018;SDS011;66044;53.142;17.962;2023-06-04T01:38:22;6.70;;;2.50;;
77018;SDS011;66044;53.142;17.962;2023-06-04T01:40:49;6.70;;;2.50;;
77018;SDS011;66044;53.142;17.962;2023-06-04T01:43:16;6.70;;;2.60;;
77018;SDS011;66044;53.142;17.962;2023-06-04T01:45:43;7.90;;;2.40;;
77018;SDS011;66044;53.142;17.962;2023-06-04T01:48:10;7.10;;;2.50;;
77018;SDS011;66044;53.142;17.962;2023-06-04T01:50:36;7.10;;;2.60;;
77018;SDS011;66044;53.142;17.962;2023-06-04T01:53:03;8.10;;;2.70;;
77018;SDS011;66044;53.142;17.962;2023-06-04T01:55:29;6.60;;;2.40;;
77018;SDS011;66044;53.142;17.962;2023-06-04T01:57:59;8.80;;;2.30;;
77018;SDS011;66044;53.142;17.962;2023-06-04T02:00:26;6.90;;;2.40;;
77018;SDS011;66044;53.142;17.962;2023-06-04T02:02:53;8.70;;;2.80;;
77018;SDS011;66044;53.142;17.962;2023-06-04T02:05:22;7.70;;;2.40;;
77018;SDS011;66044;53.142;17.962;2023-06-04T02:07:48;9.40;;;3.30;;
77018;SDS011;66044;53.142;17.962;2023-06-04T02:10:15;6.80;;;2.30;;
77018;SDS011;66044;53.142;17.962;2023-06-04T02:12:53;7.40;;;2.60;;
77018;SDS011;66044;53.142;17.962;2023-06-04T02:15:22;6.50;;;2.50;;
77018;SDS011;66044;53.142;17.962;2023-06-04T02:17:49;8.00;;;2.60;;
77018;SDS011;66044;53.142;17.962;2023-06-04T02:20:16;12.30;;;2.80;;
77018;SDS011;66044;53.142;17.962;2023-06-04T02:22:43;11.10;;;3.00;;
77018;SDS011;66044;53.142;17.962;2023-06-04T02:25:09;6.60;;;1.90;;
77018;SDS011;66044;53.142;17.962;2023-06-04T02:27:36;6.20;;;2.00;;
77018;SDS011;66044;53.142;17.962;2023-06-04T02:30:03;7.00;;;2.10;;
77018;SDS011;66044;53.142;17.962;2023-06-04T02:32:32;6.40;;;2.10;;
77018;SDS011;66044;53.142;17.962;2023-06-04T02:35:00;6.60;;;1.80;;
77018;SDS011;66044;53.142;17.962;2023-06-04T02:37:26;6.50;;;1.80;;
77018;SDS011;66044;53.142;17.962;2023-06-04T02:39:52;5.60;;;1.90;;
77018;SDS011;66044;53.142;17.962;2023-06-04T02:42:19;7.20;;;2.00;;
77018;SDS011;66044;53.142;17.962;2023-06-04T02:44:45;6.80;;;2.20;;
77018;SDS011;66044;53.142;17.962;2023-06-04T02:47:12;6.00;;;2.00;;
77018;SDS011;66044;53.142;17.962;2023-06-04T02:49:38;5.10;;;1.80;;
77018;SDS011;66044;53.142;17.962;2023-06-04T02:52:05;5.30;;;1.70;;
77018;SDS011;66044;53.142;17.962;2023-06-04T02:54:32;6.10;;;1.80;;
77018;SDS011;66044;53.142;17.962;2023-06-04T02:56:58;6.10;;;2.10;;
77018;SDS011;66044;53.142;17.962;2023-06-04T02:59:26;5.60;;;1.70;;
77018;SDS011;66044;53.142;17.962;2023-06-04T03:01:52;6.40;;;2.10;;
77018;SDS011;66044;53.142;17.962;2023-06-04T03:04:19;7.30;;;2.20;;
77018;SDS011;66044;53.142;17.962;2023-06-04T03:06:46;6.30;;;2.20;;
77018;SDS011;66044;53.142;17.962;2023-06-04T03:09:13;8.60;;;2.20;;
77018;SDS011;66044;53.142;17.962;2023-06-04T03:11:40;6.80;;;2.40;;
77018;SDS011;66044;53.142;17.962;2023-06-04T03:14:06;5.80;;;2.20;;
77018;SDS011;66044;53.142;17.962;2023-06-04T03:16:33;6.70;;;2.40;;
77018;SDS011;66044;53.142;17.962;2023-06-04T03:18:59;5.50;;;1.90;;
77018;SDS011;66044;53.142;17.962;2023-06-04T03:21:26;8.10;;;2.80;;
77018;SDS011;66044;53.142;17.962;2023-06-04T03:23:54;8.30;;;2.40;;
77018;SDS011;66044;53.142;17.962;2023-06-04T03:26:21;7.80;;;2.80;;
77018;SDS011;66044;53.142;17.962;2023-06-04T03:28:47;6.70;;;3.10;;
77018;SDS011;66044;53.142;17.962;2023-06-04T03:31:14;7.40;;;2.70;;
77018;SDS011;66044;53.142;17.962;2023-06-04T03:33:41;10.60;;;3.20;;
77018;SDS011;66044;53.142;17.962;2023-06-04T03:36:07;7.60;;;3.10;;
77018;SDS011;66044;53.142;17.962;2023-06-04T03:38:33;6.80;;;2.80;;
77018;SDS011;66044;53.142;17.962;2023-06-04T03:41:00;8.80;;;3.40;;
77018;SDS011;66044;53.142;17.962;2023-06-04T03:43:26;7.20;;;3.00;;
77018;SDS011;66044;53.142;17.962;2023-06-04T03:45:53;9.70;;;3.30;;
77018;SDS011;66044;53.142;17.962;2023-06-04T03:48:19;6.30;;;2.50;;
77018;SDS011;66044;53.142;17.962;2023-06-04T03:50:46;8.40;;;2.80;;
77018;SDS011;66044;53.142;17.962;2023-06-04T03:53:12;6.80;;;2.30;;
77018;SDS011;66044;53.142;17.962;2023-06-04T03:55:39;7.60;;;2.80;;
77018;SDS011;66044;53.142;17.962;2023-06-04T03:58:05;7.70;;;2.70;;
77018;SDS011;66044;53.142;17.962;2023-06-04T04:00:35;7.10;;;2.80;;
77018;SDS011;66044;53.142;17.962;2023-06-04T04:03:02;6.70;;;2.60;;
77018;SDS011;66044;53.142;17.962;2023-06-04T04:05:29;7.40;;;2.90;;
77018;SDS011;66044;53.142;17.962;2023-06-04T04:07:55;6.70;;;2.60;;
77018;SDS011;66044;53.142;17.962;2023-06-04T04:10:22;7.30;;;2.90;;
77018;SDS011;66044;53.142;17.962;2023-06-04T04:12:48;7.10;;;2.70;;
77018;SDS011;66044;53.142;17.962;2023-06-04T04:15:14;9.50;;;3.10;;
77018;SDS011;66044;53.142;17.962;2023-06-04T04:17:41;8.70;;;3.20;;
77018;SDS011;66044;53.142;17.962;2023-06-04T04:20:08;8.60;;;3.90;;
77018;SDS011;66044;53.142;17.962;2023-06-04T04:22:34;10.30;;;3.20;;
77018;SDS011;66044;53.142;17.962;2023-06-04T04:25:01;9.40;;;3.20;;
77018;SDS011;66044;53.142;17.962;2023-06-04T04:27:27;7.30;;;3.10;;
77018;SDS011;66044;53.142;17.962;2023-06-04T04:29:56;9.10;;;3.60;;
77018;SDS011;66044;53.142;17.962;2023-06-04T04:32:26;8.20;;;3.50;;
77018;SDS011;66044;53.142;17.962;2023-06-04T04:34:53;10.50;;;4.00;;
77018;SDS011;66044;53.142;17.962;2023-06-04T04:37:21;8.00;;;3.60;;
77018;SDS011;66044;53.142;17.962;2023-06-04T04:39:48;9.40;;;3.90;;
77018;SDS011;66044;53.142;17.962;2023-06-04T04:42:18;8.20;;;3.80;;
77018;SDS011;66044;53.142;17.962;2023-06-04T04:44:46;8.00;;;3.50;;
77018;SDS011;66044;53.142;17.962;2023-06-04T04:47:14;10.80;;;3.30;;
77018;SDS011;66044;53.142;17.962;2023-06-04T04:49:41;10.90;;;4.00;;
77018;SDS011;66044;53.142;17.962;2023-06-04T04:52:08;9.60;;;3.60;;
77018;SDS011;66044;53.142;17.962;2023-06-04T04:54:35;8.60;;;3.50;;
77018;SDS011;66044;53.142;17.962;2023-06-04T04:57:01;7.60;;;3.00;;
77018;SDS011;66044;53.142;17.962;2023-06-04T04:59:28;8.30;;;3.00;;
77018;SDS011;66044;53.142;17.962;2023-06-04T05:01:54;9.90;;;3.00;;
77018;SDS011;66044;53.142;17.962;2023-06-04T05:04:20;7.60;;;2.90;;
77018;SDS011;66044;53.142;17.962;2023-06-04T05:06:47;7.40;;;2.90;;
77018;SDS011;66044;53.142;17.962;2023-06-04T05:09:13;8.80;;;3.00;;
77018;SDS011;66044;53.142;17.962;2023-06-04T05:11:40;7.00;;;2.60;;
77018;SDS011;66044;53.142;17.962;2023-06-04T05:14:06;8.50;;;2.70;;
77018;SDS011;66044;53.142;17.962;2023-06-04T05:16:33;9.60;;;3.20;;
77018;SDS011;66044;53.142;17.962;2023-06-04T05:19:01;9.90;;;3.10;;
77018;SDS011;66044;53.142;17.962;2023-06-04T05:21:28;9.50;;;2.90;;
77018;SDS011;66044;53.142;17.962;2023-06-04T05:23:55;8.50;;;2.90;;
77018;SDS011;66044;53.142;17.962;2023-06-04T05:26:22;7.40;;;2.50;;
77018;SDS011;66044;53.142;17.962;2023-06-04T05:28:51;9.20;;;2.70;;
77018;SDS011;66044;53.142;17.962;2023-06-04T05:31:18;7.50;;;2.80;;
77018;SDS011;66044;53.142;17.962;2023-06-04T05:33:44;7.60;;;2.40;;
77018;SDS011;66044;53.142;17.962;2023-06-04T05:36:11;7.20;;;2.60;;
77018;SDS011;66044;53.142;17.962;2023-06-04T05:38:39;7.60;;;2.50;;
77018;SDS011;66044;53.142;17.962;2023-06-04T05:41:05;6.80;;;2.40;;
77018;SDS011;66044;53.142;17.962;2023-06-04T05:43:32;7.10;;;2.70;;
77018;SDS011;66044;53.142;17.962;2023-06-04T05:45:58;5.80;;;2.20;;
77018;SDS011;66044;53.142;17.962;2023-06-04T05:48:25;7.70;;;2.40;;
77018;SDS011;66044;53.142;17.962;2023-06-04T05:50:51;6.10;;;1.80;;
77018;SDS011;66044;53.142;17.962;2023-06-04T05:53:18;7.80;;;2.40;;
77018;SDS011;66044;53.142;17.962;2023-06-04T05:55:44;8.00;;;2.40;;
77018;SDS011;66044;53.142;17.962;2023-06-04T05:58:11;6.90;;;2.40;;
77018;SDS011;66044;53.142;17.962;2023-06-04T06:00:37;7.60;;;2.30;;
77018;SDS011;66044;53.142;17.962;2023-06-04T06:03:04;7.20;;;2.20;;
77018;SDS011;66044;53.142;17.962;2023-06-04T06:05:32;6.50;;;1.90;;
77018;SDS011;66044;53.142;17.962;2023-06-04T06:07:58;5.60;;;1.90;;
77018;SDS011;66044;53.142;17.962;2023-06-04T06:10:25;5.60;;;1.70;;
77018;SDS011;66044;53.142;17.962;2023-06-04T06:12:51;6.30;;;1.80;;
77018;SDS011;66044;53.142;17.962;2023-06-04T06:15:18;5.00;;;1.30;;
77018;SDS011;66044;53.142;17.962;2023-06-04T06:17:45;5.40;;;1.50;;
77018;SDS011;66044;53.142;17.962;2023-06-04T06:20:11;6.10;;;1.60;;
77018;SDS011;66044;53.142;17.962;2023-06-04T06:22:38;4.70;;;1.40;;
77018;SDS011;66044;53.142;17.962;2023-06-04T06:25:04;5.50;;;1.60;;
77018;SDS011;66044;53.142;17.962;2023-06-04T06:27:37;5.00;;;1.40;;
77018;SDS011;66044;53.142;17.962;2023-06-04T06:30:04;6.20;;;1.40;;
77018;SDS011;66044;53.142;17.962;2023-06-04T06:32:37;5.70;;;1.30;;
77018;SDS011;66044;53.142;17.962;2023-06-04T06:35:04;6.10;;;1.10;;
77018;SDS011;66044;53.142;17.962;2023-06-04T06:37:31;4.30;;;1.10;;
77018;SDS011;66044;53.142;17.962;2023-06-04T06:39:58;4.90;;;1.40;;
77018;SDS011;66044;53.142;17.962;2023-06-04T06:42:24;4.20;;;1.10;;
77018;SDS011;66044;53.142;17.962;2023-06-04T06:44:51;4.80;;;1.10;;
77018;SDS011;66044;53.142;17.962;2023-06-04T06:47:18;3.70;;;1.20;;
77018;SDS011;66044;53.142;17.962;2023-06-04T06:49:44;5.90;;;1.00;;
77018;SDS011;66044;53.142;17.962;2023-06-04T06:52:11;2.90;;;0.80;;
77018;SDS011;66044;53.142;17.962;2023-06-04T06:54:37;4.70;;;0.90;;
77018;SDS011;66044;53.142;17.962;2023-06-04T06:57:04;5.70;;;1.10;;
77018;SDS011;66044;53.142;17.962;2023-06-04T06:59:35;3.70;;;1.00;;
77018;SDS011;66044;53.142;17.962;2023-06-04T07:02:02;4.40;;;1.20;;
77018;SDS011;66044;53.142;17.962;2023-06-04T07:04:30;3.60;;;1.10;;
77018;SDS011;66044;53.142;17.962;2023-06-04T07:06:56;3.90;;;1.00;;
77018;SDS011;66044;53.142;17.962;2023-06-04T07:09:23;4.40;;;1.10;;
77018;SDS011;66044;53.142;17.962;2023-06-04T07:11:49;5.80;;;1.60;;
77018;SDS011;66044;53.142;17.962;2023-06-04T07:14:16;5.30;;;1.00;;
77018;SDS011;66044;53.142;17.962;2023-06-04T07:16:42;3.70;;;1.00;;
77018;SDS011;66044;53.142;17.962;2023-06-04T07:19:09;3.50;;;0.90;;
77018;SDS011;66044;53.142;17.962;2023-06-04T07:21:36;3.10;;;1.10;;
77018;SDS011;66044;53.142;17.962;2023-06-04T07:24:02;3.00;;;0.70;;
77018;SDS011;66044;53.142;17.962;2023-06-04T07:26:28;3.30;;;0.90;;
77018;SDS011;66044;53.142;17.962;2023-06-04T07:28:56;5.10;;;0.90;;
77018;SDS011;66044;53.142;17.962;2023-06-04T07:31:23;2.60;;;0.70;;
77018;SDS011;66044;53.142;17.962;2023-06-04T07:33:50;2.30;;;0.60;;
77018;SDS011;66044;53.142;17.962;2023-06-04T07:36:16;2.60;;;0.60;;
77018;SDS011;66044;53.142;17.962;2023-06-04T07:38:43;6.30;;;0.80;;
77018;SDS011;66044;53.142;17.962;2023-06-04T07:41:09;2.50;;;0.50;;
77018;SDS011;66044;53.142;17.962;2023-06-04T07:43:36;3.30;;;0.60;;
77018;SDS011;66044;53.142;17.962;2023-06-04T07:46:06;1.60;;;0.40;;
77018;SDS011;66044;53.142;17.962;2023-06-04T07:48:32;2.70;;;0.50;;
77018;SDS011;66044;53.142;17.962;2023-06-04T07:51:00;2.90;;;0.60;;
77018;SDS011;66044;53.142;17.962;2023-06-04T07:53:27;2.90;;;0.50;;
77018;SDS011;66044;53.142;17.962;2023-06-04T07:55:54;4.00;;;0.50;;
77018;SDS011;66044;53.142;17.962;2023-06-04T07:58:21;2.90;;;0.50;;
77018;SDS011;66044;53.142;17.962;2023-06-04T08:00:48;3.40;;;0.40;;
77018;SDS011;66044;53.142;17.962;2023-06-04T08:03:15;1.80;;;0.40;;
77018;SDS011;66044;53.142;17.962;2023-06-04T08:05:41;2.80;;;0.50;;
77018;SDS011;66044;53.142;17.962;2023-06-04T08:08:08;2.50;;;0.60;;
77018;SDS011;66044;53.142;17.962;2023-06-04T08:10:34;2.90;;;0.50;;
77018;SDS011;66044;53.142;17.962;2023-06-04T08:13:01;3.30;;;0.70;;
77018;SDS011;66044;53.142;17.962;2023-06-04T08:15:28;2.00;;;0.50;;
77018;SDS011;66044;53.142;17.962;2023-06-04T08:17:54;3.50;;;0.40;;
77018;SDS011;66044;53.142;17.962;2023-06-04T08:20:21;2.90;;;0.50;;
77018;SDS011;66044;53.142;17.962;2023-06-04T08:22:48;3.80;;;0.70;;
77018;SDS011;66044;53.142;17.962;2023-06-04T08:25:14;3.80;;;0.50;;
77018;SDS011;66044;53.142;17.962;2023-06-04T08:27:42;3.10;;;0.50;;
77018;SDS011;66044;53.142;17.962;2023-06-04T08:30:08;3.60;;;0.70;;
77018;SDS011;66044;53.142;17.962;2023-06-04T08:32:35;3.30;;;0.80;;
77018;SDS011;66044;53.142;17.962;2023-06-04T08:35:02;2.80;;;0.60;;
77018;SDS011;66044;53.142;17.962;2023-06-04T08:37:31;3.80;;;0.70;;
77018;SDS011;66044;53.142;17.962;2023-06-04T08:39:57;4.40;;;0.70;;
77018;SDS011;66044;53.142;17.962;2023-06-04T08:42:31;3.60;;;0.60;;
77018;SDS011;66044;53.142;17.962;2023-06-04T08:45:03;3.10;;;0.60;;
77018;SDS011;66044;53.142;17.962;2023-06-04T08:47:32;4.00;;;0.90;;
77018;SDS011;66044;53.142;17.962;2023-06-04T08:50:01;3.00;;;0.50;;
77018;SDS011;66044;53.142;17.962;2023-06-04T08:52:28;3.00;;;0.60;;
77018;SDS011;66044;53.142;17.962;2023-06-04T08:54:55;2.90;;;0.70;;
77018;SDS011;66044;53.142;17.962;2023-06-04T08:57:23;2.70;;;0.60;;
77018;SDS011;66044;53.142;17.962;2023-06-04T08:59:49;3.10;;;0.60;;
77018;SDS011;66044;53.142;17.962;2023-06-04T09:02:16;3.90;;;0.60;;
77018;SDS011;66044;53.142;17.962;2023-06-04T09:04:44;3.30;;;0.80;;
77018;SDS011;66044;53.142;17.962;2023-06-04T09:07:14;2.50;;;0.60;;
77018;SDS011;66044;53.142;17.962;2023-06-04T09:09:44;3.50;;;0.70;;
77018;SDS011;66044;53.142;17.962;2023-06-04T09:12:14;5.50;;;0.70;;
77018;SDS011;66044;53.142;17.962;2023-06-04T09:14:47;2.90;;;0.60;;
77018;SDS011;66044;53.142;17.962;2023-06-04T09:17:14;3.00;;;0.60;;
77018;SDS011;66044;53.142;17.962;2023-06-04T09:19:42;5.90;;;0.80;;
77018;SDS011;66044;53.142;17.962;2023-06-04T09:22:08;2.80;;;0.50;;
77018;SDS011;66044;53.142;17.962;2023-06-04T09:24:45;2.80;;;0.60;;
77018;SDS011;66044;53.142;17.962;2023-06-04T09:27:14;3.00;;;0.60;;
77018;SDS011;66044;53.142;17.962;2023-06-04T09:29:52;2.90;;;0.60;;
77018;SDS011;66044;53.142;17.962;2023-06-04T09:32:27;2.60;;;0.60;;
77018;SDS011;66044;53.142;17.962;2023-06-04T09:34:55;5.20;;;0.70;;
77018;SDS011;66044;53.142;17.962;2023-06-04T09:37:35;2.80;;;0.60;;
77018;SDS011;66044;53.142;17.962;2023-06-04T09:40:02;3.60;;;0.60;;
77018;SDS011;66044;53.142;17.962;2023-06-04T09:42:41;3.80;;;0.60;;
77018;SDS011;66044;53.142;17.962;2023-06-04T09:45:11;2.00;;;0.40;;
77018;SDS011;66044;53.142;17.962;2023-06-04T09:47:39;2.80;;;0.60;;
77018;SDS011;66044;53.142;17.962;2023-06-04T09:50:07;3.70;;;0.60;;
77018;SDS011;66044;53.142;17.962;2023-06-04T09:52:34;3.30;;;0.70;;
77018;SDS011;66044;53.142;17.962;2023-06-04T09:55:01;4.40;;;0.90;;
77018;SDS011;66044;53.142;17.962;2023-06-04T09:57:28;4.50;;;0.90;;
77018;SDS011;66044;53.142;17.962;2023-06-04T09:59:56;2.90;;;0.70;;
77018;SDS011;66044;53.142;17.962;2023-06-04T10:02:25;3.60;;;0.70;;
77018;SDS011;66044;53.142;17.962;2023-06-04T10:04:56;4.50;;;0.70;;
77018;SDS011;66044;53.142;17.962;2023-06-04T10:07:25;3.30;;;0.70;;
77018;SDS011;66044;53.142;17.962;2023-06-04T10:09:52;4.40;;;0.60;;
77018;SDS011;66044;53.142;17.962;2023-06-04T10:12:25;2.90;;;0.60;;
77018;SDS011;66044;53.142;17.962;2023-06-04T10:15:05;3.20;;;0.60;;
77018;SDS011;66044;53.142;17.962;2023-06-04T10:17:34;2.80;;;0.60;;
77018;SDS011;66044;53.142;17.962;2023-06-04T10:20:02;4.40;;;1.00;;
77018;SDS011;66044;53.142;17.962;2023-06-04T10:22:32;4.20;;;0.60;;
77018;SDS011;66044;53.142;17.962;2023-06-04T10:25:00;4.00;;;0.70;;
77018;SDS011;66044;53.142;17.962;2023-06-04T10:27:27;3.50;;;0.70;;
77018;SDS011;66044;53.142;17.962;2023-06-04T10:29:54;5.80;;;0.80;;
77018;SDS011;66044;53.142;17.962;2023-06-04T10:32:20;4.10;;;0.70;;
77018;SDS011;66044;53.142;17.962;2023-06-04T10:34:47;3.70;;;0.80;;
77018;SDS011;66044;53.142;17.962;2023-06-04T10:37:20;3.70;;;0.60;;
77018;SDS011;66044;53.142;17.962;2023-06-04T10:39:57;2.80;;;0.60;;
77018;SDS011;66044;53.142;17.962;2023-06-04T10:42:25;3.40;;;0.50;;
77018;SDS011;66044;53.142;17.962;2023-06-04T10:45:03;3.40;;;0.80;;
77018;SDS011;66044;53.142;17.962;2023-06-04T10:47:39;3.70;;;0.60;;
77018;SDS011;66044;53.142;17.962;2023-06-04T10:50:10;2.70;;;0.50;;
77018;SDS011;66044;53.142;17.962;2023-06-04T10:52:51;3.70;;;0.60;;
77018;SDS011;66044;53.142;17.962;2023-06-04T10:55:19;2.40;;;0.60;;
77018;SDS011;66044;53.142;17.962;2023-06-04T10:57:55;4.30;;;1.00;;
77018;SDS011;66044;53.142;17.962;2023-06-04T11:03:06;4.10;;;0.80;;
77018;SDS011;66044;53.142;17.962;2023-06-04T11:05:38;4.70;;;0.90;;
77018;SDS011;66044;53.142;17.962;2023-06-04T11:08:11;3.80;;;0.80;;
77018;SDS011;66044;53.142;17.962;2023-06-04T11:10:52;3.30;;;0.70;;
77018;SDS011;66044;53.142;17.962;2023-06-04T11:13:22;3.50;;;0.70;;
77018;SDS011;66044;53.142;17.962;2023-06-04T11:15:52;4.00;;;1.00;;
77018;SDS011;66044;53.142;17.962;2023-06-04T11:18:19;3.30;;;0.70;;
77018;SDS011;66044;53.142;17.962;2023-06-04T11:20:47;8.30;;;1.00;;
77018;SDS011;66044;53.142;17.962;2023-06-04T11:23:15;3.60;;;0.90;;
77018;SDS011;66044;53.142;17.962;2023-06-04T11:25:43;3.10;;;0.70;;
77018;SDS011;66044;53.142;17.962;2023-06-04T11:28:14;2.70;;;0.60;;
77018;SDS011;66044;53.142;17.962;2023-06-04T11:30:55;3.30;;;0.60;;
77018;SDS011;66044;53.142;17.962;2023-06-04T11:33:25;3.60;;;0.80;;
77018;SDS011;66044;53.142;17.962;2023-06-04T11:35:52;5.50;;;1.00;;
77018;SDS011;66044;53.142;17.962;2023-06-04T11:38:18;4.30;;;0.80;;
77018;SDS011;66044;53.142;17.962;2023-06-04T11:40:54;7.00;;;0.90;;
77018;SDS011;66044;53.142;17.962;2023-06-04T11:43:26;4.00;;;0.80;;
77018;SDS011;66044;53.142;17.962;2023-06-04T11:45:55;5.60;;;0.80;;
77018;SDS011;66044;53.142;17.962;2023-06-04T11:48:22;3.60;;;0.70;;
77018;SDS011;66044;53.142;17.962;2023-06-04T11:50:49;3.30;;;0.60;;
77018;SDS011;66044;53.142;17.962;2023-06-04T11:53:15;3.70;;;0.70;;
77018;SDS011;66044;53.142;17.962;2023-06-04T11:55:42;2.20;;;0.50;;
77018;SDS011;66044;53.142;17.962;2023-06-04T11:58:09;4.00;;;0.80;;
77018;SDS011;66044;53.142;17.962;2023-06-04T12:00:36;3.60;;;0.80;;
77018;SDS011;66044;53.142;17.962;2023-06-04T12:03:02;2.40;;;0.50;;
77018;SDS011;66044;53.142;17.962;2023-06-04T12:05:29;2.60;;;0.60;;
77018;SDS011;66044;53.142;17.962;2023-06-04T12:08:04;1.90;;;0.40;;
77018;SDS011;66044;53.142;17.962;2023-06-04T12:10:36;2.80;;;0.70;;
77018;SDS011;66044;53.142;17.962;2023-06-04T12:13:04;2.50;;;0.50;;
77018;SDS011;66044;53.142;17.962;2023-06-04T12:15:31;3.50;;;0.60;;
77018;SDS011;66044;53.142;17.962;2023-06-04T12:17:58;3.20;;;0.70;;
77018;SDS011;66044;53.142;17.962;2023-06-04T12:20:37;4.30;;;0.70;;
77018;SDS011;66044;53.142;17.962;2023-06-04T12:23:05;3.00;;;0.50;;
77018;SDS011;66044;53.142;17.962;2023-06-04T12:25:33;3.30;;;0.70;;
77018;SDS011;66044;53.142;17.962;2023-06-04T12:28:01;3.20;;;0.50;;
77018;SDS011;66044;53.142;17.962;2023-06-04T12:30:38;3.90;;;0.80;;
77018;SDS011;66044;53.142;17.962;2023-06-04T12:33:06;3.80;;;0.70;;
77018;SDS011;66044;53.142;17.962;2023-06-04T12:35:34;5.20;;;1.30;;
77018;SDS011;66044;53.142;17.962;2023-06-04T12:38:02;5.10;;;1.20;;
77018;SDS011;66044;53.142;17.962;2023-06-04T12:40:30;3.60;;;0.70;;
77018;SDS011;66044;53.142;17.962;2023-06-04T12:42:57;3.60;;;0.60;;
77018;SDS011;66044;53.142;17.962;2023-06-04T12:45:23;3.00;;;0.80;;
77018;SDS011;66044;53.142;17.962;2023-06-04T12:47:50;7.40;;;0.60;;
77018;SDS011;66044;53.142;17.962;2023-06-04T12:50:16;5.60;;;0.80;;
77018;SDS011;66044;53.142;17.962;2023-06-04T12:52:44;2.60;;;0.70;;
77018;SDS011;66044;53.142;17.962;2023-06-04T12:55:11;3.60;;;0.70;;
77018;SDS011;66044;53.142;17.962;2023-06-04T12:57:37;3.50;;;0.70;;
77018;SDS011;66044;53.142;17.962;2023-06-04T13:00:04;6.10;;;1.00;;
77018;SDS011;66044;53.142;17.962;2023-06-04T13:02:31;6.00;;;0.70;;
77018;SDS011;66044;53.142;17.962;2023-06-04T13:04:58;2.70;;;0.50;;
77018;SDS011;66044;53.142;17.962;2023-06-04T13:07:24;3.80;;;0.70;;
77018;SDS011;66044;53.142;17.962;2023-06-04T13:09:51;3.20;;;0.80;;
77018;SDS011;66044;53.142;17.962;2023-06-04T13:12:17;5.10;;;1.00;;
77018;SDS011;66044;53.142;17.962;2023-06-04T13:14:44;3.50;;;0.70;;
77018;SDS011;66044;53.142;17.962;2023-06-04T13:17:11;5.00;;;0.60;;
77018;SDS011;66044;53.142;17.962;2023-06-04T13:19:37;4.20;;;0.60;;
77018;SDS011;66044;53.142;17.962;2023-06-04T13:22:03;3.00;;;0.70;;
77018;SDS011;66044;53.142;17.962;2023-06-04T13:24:30;2.80;;;0.70;;
77018;SDS011;66044;53.142;17.962;2023-06-04T13:26:57;2.60;;;0.60;;
77018;SDS011;66044;53.142;17.962;2023-06-04T13:29:24;3.80;;;0.70;;
77018;SDS011;66044;53.142;17.962;2023-06-04T13:31:51;4.60;;;0.80;;
77018;SDS011;66044;53.142;17.962;2023-06-04T13:34:18;4.40;;;0.80;;
77018;SDS011;66044;53.142;17.962;2023-06-04T13:36:45;2.00;;;0.50;;
77018;SDS011;66044;53.142;17.962;2023-06-04T13:39:11;3.20;;;0.70;;
77018;SDS011;66044;53.142;17.962;2023-06-04T13:41:38;5.20;;;0.70;;
77018;SDS011;66044;53.142;17.962;2023-06-04T13:44:04;3.00;;;0.70;;
77018;SDS011;66044;53.142;17.962;2023-06-04T13:46:31;4.40;;;0.80;;
77018;SDS011;66044;53.142;17.962;2023-06-04T13:48:57;3.60;;;0.80;;
77018;SDS011;66044;53.142;17.962;2023-06-04T13:51:24;4.50;;;0.80;;
77018;SDS011;66044;53.142;17.962;2023-06-04T13:53:50;3.40;;;0.90;;
77018;SDS011;66044;53.142;17.962;2023-06-04T13:56:19;3.50;;;0.80;;
77018;SDS011;66044;53.142;17.962;2023-06-04T13:58:46;7.10;;;0.90;;
77018;SDS011;66044;53.142;17.962;2023-06-04T14:01:12;4.90;;;1.00;;
77018;SDS011;66044;53.142;17.962;2023-06-04T14:03:39;3.70;;;0.70;;
77018;SDS011;66044;53.142;17.962;2023-06-04T14:06:06;3.20;;;0.50;;
77018;SDS011;66044;53.142;17.962;2023-06-04T14:08:32;3.80;;;0.70;;
77018;SDS011;66044;53.142;17.962;2023-06-04T14:10:59;2.90;;;0.80;;
77018;SDS011;66044;53.142;17.962;2023-06-04T14:13:25;5.70;;;0.90;;
77018;SDS011;66044;53.142;17.962;2023-06-04T14:15:52;5.20;;;0.70;;
77018;SDS011;66044;53.142;17.962;2023-06-04T14:18:18;3.30;;;0.70;;
77018;SDS011;66044;53.142;17.962;2023-06-04T14:20:45;4.70;;;0.80;;
77018;SDS011;66044;53.142;17.962;2023-06-04T14:23:11;4.80;;;0.90;;
77018;SDS011;66044;53.142;17.962;2023-06-04T14:25:38;5.40;;;0.80;;
77018;SDS011;66044;53.142;17.962;2023-06-04T14:28:05;4.30;;;0.70;;
77018;SDS011;66044;53.142;17.962;2023-06-04T14:30:31;4.20;;;0.70;;
77018;SDS011;66044;53.142;17.962;2023-06-04T14:32:58;2.80;;;0.60;;
77018;SDS011;66044;53.142;17.962;2023-06-04T14:35:24;3.30;;;0.80;;
77018;SDS011;66044;53.142;17.962;2023-06-04T14:37:51;3.70;;;0.90;;
77018;SDS011;66044;53.142;17.962;2023-06-04T14:40:17;2.20;;;0.60;;
77018;SDS011;66044;53.142;17.962;2023-06-04T14:42:44;4.00;;;0.70;;